Time;durP1;ratioP1;P1;durP2;ratioP2;P2;SDS_P1;SDS_P2;PMS_P1;PMS_P2;Temp;Humidity;BMP_temperature;BMP_pressure;BME280_temperature;BME280_humidity;BME280_pressure;Samples;Min_cycle;Max_cycle;Signal;HPM_P1;HPM_P2
2023/12/25 00:01:26;;;;;;;1.30;1.10;;;9.70;99.90;;;;;;4923899;29;20506;-63
2023/12/25 00:03:52;;;;;;;6.43;1.13;;;9.70;99.90;;;;;;4918224;29;20637;-62
2023/12/25 00:06:18;;;;;;;1.90;0.80;;;9.70;99.90;;;;;;4914799;29;20286;-61
2023/12/25 00:08:44;;;;;;;3.00;1.30;;;9.70;99.90;;;;;;4915854;29;20179;-62
2023/12/25 00:11:10;;;;;;;1.43;1.00;;;9.70;99.90;;;;;;4921646;29;20545;-61
2023/12/25 00:13:36;;;;;;;1.53;0.80;;;9.70;99.90;;;;;;4915741;29;20168;-63
2023/12/25 00:16:02;;;;;;;3.87;1.17;;;9.60;99.90;;;;;;4920919;29;20423;-63
2023/12/25 00:18:27;;;;;;;1.37;1.20;;;9.70;99.90;;;;;;4930264;29;20876;-63
2023/12/25 00:20:53;;;;;;;1.30;1.07;;;9.70;99.90;;;;;;4907659;29;20262;-63
2023/12/25 00:23:18;;;;;;;1.60;1.00;;;9.70;99.90;;;;;;4922288;29;20192;-62
2023/12/25 00:25:44;;;;;;;1.37;1.23;;;9.60;99.90;;;;;;4916972;29;20214;-62
2023/12/25 00:28:09;;;;;;;2.00;0.87;;;9.50;99.90;;;;;;4915157;29;20208;-61
2023/12/25 00:30:35;;;;;;;1.20;0.70;;;9.50;99.90;;;;;;4912628;29;20254;-62
2023/12/25 00:33:01;;;;;;;2.03;1.10;;;9.40;99.90;;;;;;4915433;29;20206;-60
2023/12/25 00:35:26;;;;;;;1.30;1.10;;;9.40;99.90;;;;;;4912385;29;20206;-63
2023/12/25 00:37:52;;;;;;;2.77;1.30;;;9.30;99.90;;;;;;4915727;29;20271;-60
2023/12/25 00:40:17;;;;;;;1.83;0.80;;;9.30;99.90;;;;;;4915699;29;20744;-62
2023/12/25 00:42:43;;;;;;;1.73;0.80;;;9.30;99.90;;;;;;4920519;29;20284;-60
2023/12/25 00:45:09;;;;;;;1.70;1.30;;;9.30;99.90;;;;;;4907534;29;20255;-63
2023/12/25 00:47:34;;;;;;;1.43;1.00;;;9.40;99.90;;;;;;4920011;29;20262;-62
2023/12/25 00:50:00;;;;;;;2.60;0.90;;;9.50;99.90;;;;;;4922386;29;20456;-60
2023/12/25 00:52:25;;;;;;;1.57;0.80;;;9.50;99.90;;;;;;4914998;29;20223;-60
2023/12/25 00:54:51;;;;;;;1.13;0.90;;;9.50;99.90;;;;;;4915379;29;20673;-60
2023/12/25 00:57:17;;;;;;;0.70;0.70;;;9.50;99.90;;;;;;4918132;29;20250;-63
2023/12/25 00:59:42;;;;;;;3.40;1.23;;;9.60;99.90;;;;;;4911381;29;20273;-61
2023/12/25 01:02:08;;;;;;;2.47;1.57;;;9.60;99.90;;;;;;4915374;29;20194;-62
2023/12/25 01:04:33;;;;;;;1.43;1.17;;;9.60;99.90;;;;;;4913712;29;20175;-62
2023/12/25 01:06:59;;;;;;;6.10;2.03;;;9.60;99.90;;;;;;4915900;29;20198;-62
2023/12/25 01:09:24;;;;;;;4.00;2.17;;;9.60;99.90;;;;;;4918639;29;20195;-62
2023/12/25 01:11:50;;;;;;;3.50;1.83;;;9.70;99.90;;;;;;4919548;29;20770;-62
2023/12/25 01:14:16;;;;;;;4.50;1.27;;;9.70;99.90;;;;;;4918920;29;20179;-62
2023/12/25 01:16:42;;;;;;;3.00;2.00;;;9.70;99.90;;;;;;4919014;29;20572;-62
2023/12/25 01:19:07;;;;;;;5.70;2.33;;;9.70;99.90;;;;;;4923768;29;20418;-62
2023/12/25 01:21:34;;;;;;;8.13;2.30;;;9.60;99.90;;;;;;4911482;29;20274;-62
2023/12/25 01:24:00;;;;;;;3.63;1.83;;;9.70;99.90;;;;;;4924921;29;20173;-60
2023/12/25 01:26:25;;;;;;;6.00;1.80;;;9.60;99.90;;;;;;4926005;29;20416;-61
2023/12/25 01:28:51;;;;;;;2.63;1.50;;;9.70;99.90;;;;;;4918451;29;20180;-62
2023/12/25 01:31:17;;;;;;;4.07;1.93;;;9.70;99.90;;;;;;4916892;29;20211;-62
2023/12/25 01:33:43;;;;;;;4.73;1.90;;;9.70;99.90;;;;;;4912994;29;20411;-62
2023/12/25 01:36:09;;;;;;;2.33;1.80;;;9.70;99.90;;;;;;4920111;29;20792;-63
2023/12/25 01:38:34;;;;;;;5.53;1.60;;;9.80;99.90;;;;;;4918483;29;20207;-62
2023/12/25 01:41:00;;;;;;;3.00;1.53;;;9.80;99.90;;;;;;4921556;29;20238;-63
2023/12/25 01:43:25;;;;;;;5.33;1.93;;;9.90;99.90;;;;;;4916142;29;20685;-63
2023/12/25 01:45:51;;;;;;;1.90;1.30;;;9.80;99.90;;;;;;4916424;29;20184;-61
2023/12/25 01:48:17;;;;;;;3.10;1.70;;;9.80;99.90;;;;;;4918517;29;20180;-64
2023/12/25 01:50:43;;;;;;;5.23;1.83;;;9.80;99.90;;;;;;4913060;29;20266;-63
2023/12/25 01:53:09;;;;;;;3.10;1.70;;;9.70;99.90;;;;;;4918247;29;20706;-64
2023/12/25 01:55:35;;;;;;;5.73;2.10;;;9.70;99.90;;;;;;4918239;29;20423;-63
2023/12/25 01:58:01;;;;;;;6.40;1.37;;;9.80;99.90;;;;;;4918245;29;20187;-64
2023/12/25 02:00:26;;;;;;;4.20;1.60;;;9.80;99.90;;;;;;4924584;29;20423;-63
2023/12/25 02:02:52;;;;;;;2.20;1.50;;;9.90;99.90;;;;;;4914709;29;20271;-64
2023/12/25 02:05:17;;;;;;;2.00;1.40;;;9.80;99.90;;;;;;4919836;29;20285;-63
2023/12/25 02:07:45;;;;;;;3.30;1.80;;;9.80;99.90;;;;;;4918193;29;20706;-64
2023/12/25 02:10:24;;;;;;;6.33;1.83;;;9.80;99.90;;;;;;4915252;29;20208;-63
2023/12/25 02:12:49;;;;;;;6.63;1.60;;;9.80;99.90;;;;;;4911507;29;20427;-64
2023/12/25 02:15:15;;;;;;;7.23;1.87;;;9.80;99.90;;;;;;4916584;29;20754;-62
2023/12/25 02:17:41;;;;;;;4.00;1.70;;;9.80;99.90;;;;;;4923500;29;20251;-63
2023/12/25 02:20:07;;;;;;;3.30;1.40;;;9.90;99.90;;;;;;4915218;29;20175;-63
2023/12/25 02:22:34;;;;;;;7.57;1.97;;;9.90;99.90;;;;;;4905886;29;20603;-62
2023/12/25 02:25:02;;;;;;;2.67;2.43;;;9.90;99.90;;;;;;4913442;29;20557;-62
2023/12/25 02:27:29;;;;;;;3.50;1.30;;;10.00;99.90;;;;;;4917613;29;20813;-64
2023/12/25 02:29:54;;;;;;;4.60;1.53;;;10.00;99.90;;;;;;4917288;29;20463;-64
2023/12/25 02:32:20;;;;;;;3.40;1.53;;;10.00;99.90;;;;;;4917336;29;20431;-64
2023/12/25 02:34:47;;;;;;;2.80;1.30;;;10.00;99.90;;;;;;4920994;29;20543;-63
2023/12/25 02:37:13;;;;;;;2.70;1.60;;;10.10;99.90;;;;;;4917770;29;20203;-62
2023/12/25 02:39:39;;;;;;;4.40;1.10;;;10.10;99.90;;;;;;4917575;29;20962;-63
2023/12/25 02:42:05;;;;;;;3.00;1.30;;;10.10;99.90;;;;;;4924741;29;21018;-62
2023/12/25 02:44:31;;;;;;;5.60;1.67;;;10.20;99.90;;;;;;4916655;29;20427;-63
2023/12/25 02:46:56;;;;;;;2.50;1.30;;;10.20;99.90;;;;;;4923845;29;20183;-63
2023/12/25 02:49:22;;;;;;;2.20;1.40;;;10.30;99.90;;;;;;4917514;29;20873;-62
2023/12/25 02:51:48;;;;;;;4.93;1.43;;;10.20;99.90;;;;;;4916972;29;20258;-64
2023/12/25 02:54:13;;;;;;;4.40;1.40;;;10.30;99.90;;;;;;4917055;29;20167;-63
2023/12/25 02:56:40;;;;;;;1.27;1.17;;;10.20;99.90;;;;;;4915887;29;20478;-63
2023/12/25 02:59:05;;;;;;;5.37;2.23;;;10.30;99.90;;;;;;4932022;29;20198;-63
2023/12/25 03:01:31;;;;;;;5.60;1.30;;;10.30;99.90;;;;;;4931643;29;20436;-63
2023/12/25 03:03:57;;;;;;;2.60;1.00;;;10.20;99.90;;;;;;4923777;29;20267;-64
2023/12/25 03:06:22;;;;;;;2.23;1.17;;;10.30;99.90;;;;;;4915244;29;20188;-64
2023/12/25 03:08:48;;;;;;;4.03;1.73;;;10.40;99.90;;;;;;4918177;29;20251;-64
2023/12/25 03:11:14;;;;;;;2.20;1.07;;;10.30;99.90;;;;;;4916899;29;20652;-62
2023/12/25 03:13:39;;;;;;;1.33;1.23;;;10.40;99.90;;;;;;4918203;29;20176;-62
2023/12/25 03:16:05;;;;;;;1.40;1.30;;;10.40;99.90;;;;;;4919980;29;20585;-63
2023/12/25 03:18:32;;;;;;;5.10;1.50;;;10.40;99.90;;;;;;4917218;29;20231;-63
2023/12/25 03:20:57;;;;;;;2.60;1.23;;;10.30;99.90;;;;;;4916889;29;20453;-62
2023/12/25 03:23:23;;;;;;;1.43;1.10;;;10.20;99.90;;;;;;4914663;29;20436;-63
2023/12/25 03:25:48;;;;;;;1.40;1.30;;;10.20;99.90;;;;;;4916686;29;20231;-63
2023/12/25 03:28:14;;;;;;;4.93;1.70;;;10.20;99.90;;;;;;4921326;29;20180;-63
2023/12/25 03:30:39;;;;;;;3.83;1.60;;;10.10;99.90;;;;;;4920236;29;20695;-63
2023/12/25 03:33:07;;;;;;;4.10;1.73;;;10.10;99.90;;;;;;4896104;29;20180;-63
2023/12/25 03:35:33;;;;;;;2.30;1.20;;;10.00;99.90;;;;;;4914302;29;20191;-63
2023/12/25 03:37:59;;;;;;;1.47;1.30;;;9.90;99.90;;;;;;4905715;29;20421;-63
2023/12/25 03:40:24;;;;;;;2.10;1.40;;;9.90;99.90;;;;;;4915731;29;20514;-63
2023/12/25 03:42:50;;;;;;;4.07;1.73;;;10.00;99.90;;;;;;4939590;29;20322;-62
2023/12/25 03:45:15;;;;;;;3.53;1.40;;;10.00;99.90;;;;;;4916384;29;20180;-63
2023/12/25 03:47:41;;;;;;;2.03;1.10;;;10.00;99.90;;;;;;4920567;29;20797;-63
2023/12/25 03:50:07;;;;;;;2.47;1.57;;;9.90;99.90;;;;;;4912307;29;20239;-61
2023/12/25 03:52:32;;;;;;;2.03;1.47;;;9.90;99.90;;;;;;4916896;29;20223;-63
2023/12/25 03:54:58;;;;;;;2.10;1.10;;;9.90;99.90;;;;;;4915236;29;20529;-63
2023/12/25 03:57:23;;;;;;;2.43;1.63;;;9.90;99.90;;;;;;4914229;29;20176;-61
2023/12/25 03:59:49;;;;;;;4.83;1.37;;;9.90;99.90;;;;;;4918618;29;20182;-62
2023/12/25 04:02:15;;;;;;;2.90;2.10;;;9.90;99.90;;;;;;4914799;29;20570;-62
2023/12/25 04:04:40;;;;;;;2.20;1.40;;;9.90;99.90;;;;;;4922641;29;20619;-59
2023/12/25 04:07:06;;;;;;;4.80;1.53;;;9.90;99.90;;;;;;4916035;29;20179;-62
2023/12/25 04:09:31;;;;;;;4.90;1.53;;;9.90;99.90;;;;;;4908428;29;20224;-62
2023/12/25 04:11:57;;;;;;;3.97;1.63;;;9.80;99.90;;;;;;4918784;29;20195;-63
2023/12/25 04:14:23;;;;;;;2.60;1.17;;;9.90;99.90;;;;;;4915454;29;20183;-63
2023/12/25 04:16:48;;;;;;;4.17;1.33;;;9.80;99.90;;;;;;4923394;29;20203;-62
2023/12/25 04:19:14;;;;;;;4.20;1.63;;;9.90;99.90;;;;;;4918529;29;20179;-64
2023/12/25 04:21:39;;;;;;;3.37;1.23;;;10.00;99.90;;;;;;4917564;29;20188;-63
2023/12/25 04:24:05;;;;;;;1.53;1.30;;;10.00;99.90;;;;;;4915534;29;20172;-61
2023/12/25 04:26:31;;;;;;;1.43;1.30;;;10.00;99.90;;;;;;4915419;29;20176;-62
2023/12/25 04:28:56;;;;;;;2.63;1.50;;;10.00;99.90;;;;;;4915188;29;20198;-61
2023/12/25 04:31:22;;;;;;;3.80;1.90;;;10.00;99.90;;;;;;4911490;29;20215;-62
2023/12/25 04:33:48;;;;;;;2.90;1.53;;;10.00;99.90;;;;;;4915412;29;20670;-63
2023/12/25 04:36:13;;;;;;;4.80;1.80;;;10.10;99.90;;;;;;4919411;29;20184;-62
2023/12/25 04:38:39;;;;;;;3.90;1.40;;;10.10;99.90;;;;;;4918297;29;20702;-62
2023/12/25 04:41:05;;;;;;;2.30;1.40;;;10.10;99.90;;;;;;4926051;29;20217;-63
2023/12/25 04:43:31;;;;;;;2.73;1.43;;;10.10;99.90;;;;;;4918151;29;20431;-63
2023/12/25 04:45:56;;;;;;;3.30;1.40;;;10.10;99.90;;;;;;4915187;29;20427;-62
2023/12/25 04:48:22;;;;;;;1.70;1.30;;;10.10;99.90;;;;;;4915311;29;20628;-62
2023/12/25 04:50:48;;;;;;;1.40;1.20;;;10.20;99.90;;;;;;4914930;29;20218;-63
2023/12/25 04:53:14;;;;;;;4.30;1.50;;;10.20;99.90;;;;;;4915260;29;20175;-62
2023/12/25 04:55:41;;;;;;;4.43;1.13;;;10.20;99.90;;;;;;4912401;29;20555;-63
2023/12/25 04:58:07;;;;;;;1.17;1.07;;;10.20;99.90;;;;;;4921427;29;20426;-63
2023/12/25 05:00:33;;;;;;;2.20;1.23;;;10.30;99.90;;;;;;4908181;29;20434;-63
2023/12/25 05:02:59;;;;;;;2.23;1.50;;;10.30;99.90;;;;;;4923083;29;21005;-63
2023/12/25 05:05:25;;;;;;;2.97;1.50;;;10.30;99.90;;;;;;4919177;29;20447;-61
2023/12/25 05:07:51;;;;;;;2.60;1.50;;;10.30;99.90;;;;;;4919103;29;20420;-62
2023/12/25 05:10:17;;;;;;;4.17;1.50;;;10.40;99.90;;;;;;4918112;29;20985;-61
2023/12/25 05:12:43;;;;;;;1.77;1.30;;;10.30;99.90;;;;;;4911602;29;20455;-60
2023/12/25 05:15:09;;;;;;;3.60;2.83;;;10.40;99.90;;;;;;4918486;29;20196;-61
2023/12/25 05:17:34;;;;;;;2.90;1.23;;;10.40;99.90;;;;;;4922829;29;20203;-62
2023/12/25 05:20:00;;;;;;;3.27;1.10;;;10.40;99.90;;;;;;4916380;29;20424;-63
2023/12/25 05:22:25;;;;;;;1.63;1.30;;;10.50;99.90;;;;;;4923340;29;20198;-63
2023/12/25 05:24:51;;;;;;;1.80;1.10;;;10.50;99.90;;;;;;4907887;29;20239;-63
2023/12/25 05:27:17;;;;;;;3.97;2.00;;;10.50;99.90;;;;;;4920283;29;20692;-62
2023/12/25 05:29:42;;;;;;;1.73;1.20;;;10.60;99.90;;;;;;4913724;29;20234;-63
2023/12/25 05:32:08;;;;;;;0.90;0.90;;;10.60;99.90;;;;;;4916035;29;20233;-63
2023/12/25 05:34:33;;;;;;;1.33;1.03;;;10.60;99.90;;;;;;4923035;29;20241;-59
2023/12/25 05:36:59;;;;;;;2.03;1.30;;;10.70;99.90;;;;;;4916223;29;20647;-62
2023/12/25 05:39:25;;;;;;;3.50;1.37;;;10.60;99.90;;;;;;4916923;29;20183;-63
2023/12/25 05:41:51;;;;;;;2.00;1.17;;;10.70;99.90;;;;;;4914626;29;20231;-63
2023/12/25 05:44:17;;;;;;;4.50;1.40;;;10.60;99.90;;;;;;4914613;29;20423;-64
2023/12/25 05:46:42;;;;;;;2.00;1.37;;;10.70;99.90;;;;;;4914464;29;20172;-63
2023/12/25 05:49:08;;;;;;;2.77;1.30;;;10.70;99.90;;;;;;4914410;29;20226;-63
2023/12/25 05:51:34;;;;;;;3.03;1.23;;;10.80;99.90;;;;;;4927843;23;20265;-65
2023/12/25 05:54:00;;;;;;;2.30;1.27;;;10.70;99.90;;;;;;4921805;29;20189;-65
2023/12/25 05:56:26;;;;;;;1.87;1.13;;;10.80;99.90;;;;;;4927806;29;20306;-65
2023/12/25 05:58:51;;;;;;;5.90;1.43;;;10.80;99.90;;;;;;4918352;29;20859;-64
2023/12/25 06:01:17;;;;;;;1.80;1.33;;;10.70;99.90;;;;;;4926631;29;20266;-65
2023/12/25 06:03:43;;;;;;;1.27;1.10;;;10.70;99.90;;;;;;4922964;29;20200;-64
2023/12/25 06:06:08;;;;;;;3.67;1.67;;;10.80;99.90;;;;;;4923880;29;20518;-66
2023/12/25 06:08:34;;;;;;;3.67;1.20;;;10.80;99.90;;;;;;4911388;29;20180;-65
2023/12/25 06:11:00;;;;;;;3.50;1.33;;;10.80;99.90;;;;;;4921945;29;20231;-65
2023/12/25 06:13:26;;;;;;;2.77;1.23;;;10.80;99.90;;;;;;4936074;29;20289;-65
2023/12/25 06:15:52;;;;;;;1.93;1.13;;;10.80;99.90;;;;;;4930848;29;20448;-66
2023/12/25 06:18:17;;;;;;;3.03;1.30;;;10.70;99.90;;;;;;4934819;29;20198;-66
2023/12/25 06:20:44;;;;;;;4.70;1.30;;;10.80;99.90;;;;;;4925108;29;20423;-65
2023/12/25 06:23:09;;;;;;;5.23;1.30;;;10.80;99.90;;;;;;4929492;29;20192;-65
2023/12/25 06:25:35;;;;;;;8.73;1.50;;;10.80;99.90;;;;;;4934568;29;20491;-65
2023/12/25 06:28:01;;;;;;;2.60;1.20;;;10.80;99.90;;;;;;4926150;29;20184;-65
2023/12/25 06:30:27;;;;;;;1.73;1.10;;;10.80;99.90;;;;;;4914898;29;20472;-66
2023/12/25 06:32:53;;;;;;;1.93;1.33;;;10.90;99.90;;;;;;4926120;29;20749;-66
2023/12/25 06:35:18;;;;;;;5.53;1.83;;;10.90;99.90;;;;;;4931828;29;20171;-66
2023/12/25 06:37:44;;;;;;;5.00;1.77;;;10.90;99.90;;;;;;4928849;29;20423;-66
2023/12/25 06:40:10;;;;;;;2.00;1.27;;;11.00;99.90;;;;;;4920037;29;20190;-68
2023/12/25 06:42:36;;;;;;;4.53;1.60;;;11.00;99.90;;;;;;4924496;29;20208;-66
2023/12/25 06:45:01;;;;;;;1.20;1.10;;;10.90;99.90;;;;;;4922523;29;20446;-65
2023/12/25 06:47:27;;;;;;;3.87;2.00;;;10.90;99.90;;;;;;4929239;29;20175;-67
2023/12/25 06:49:53;;;;;;;3.47;1.30;;;10.90;99.90;;;;;;4935225;29;20793;-66
2023/12/25 06:52:19;;;;;;;2.93;1.57;;;10.90;99.90;;;;;;4935380;29;20214;-65
2023/12/25 06:54:45;;;;;;;3.90;1.30;;;10.90;99.90;;;;;;4930289;29;20423;-65
2023/12/25 06:57:13;;;;;;;2.80;1.33;;;10.90;99.90;;;;;;4925916;29;20429;-67
2023/12/25 06:59:40;;;;;;;4.93;1.30;;;10.90;99.90;;;;;;4931779;29;20179;-68
2023/12/25 07:02:07;;;;;;;2.67;1.40;;;10.90;99.90;;;;;;4922683;29;20478;-66
2023/12/25 07:04:33;;;;;;;3.30;1.63;;;10.90;99.90;;;;;;4932932;29;20426;-65
2023/12/25 07:06:59;;;;;;;1.43;1.30;;;10.90;99.90;;;;;;4932737;29;20437;-66
2023/12/25 07:09:25;;;;;;;2.50;1.47;;;10.80;99.90;;;;;;4931788;29;20215;-66
2023/12/25 07:11:51;;;;;;;2.87;1.57;;;10.90;99.90;;;;;;4934716;29;20684;-66
2023/12/25 07:14:17;;;;;;;5.33;1.67;;;10.80;99.90;;;;;;4928505;29;20250;-66
2023/12/25 07:16:42;;;;;;;1.93;1.17;;;10.80;99.90;;;;;;4925619;29;20439;-66
2023/12/25 07:19:08;;;;;;;4.43;1.30;;;10.80;99.90;;;;;;4931379;29;20167;-66
2023/12/25 07:21:33;;;;;;;4.50;1.33;;;10.80;99.90;;;;;;4933242;29;20191;-66
2023/12/25 07:23:59;;;;;;;5.20;1.63;;;10.80;99.90;;;;;;4933709;29;20178;-66
2023/12/25 07:26:25;;;;;;;4.13;1.77;;;10.80;99.90;;;;;;4932094;29;20186;-66
2023/12/25 07:28:51;;;;;;;1.47;1.10;;;10.80;99.90;;;;;;4931827;29;20179;-66
2023/12/25 07:31:16;;;;;;;4.00;2.30;;;10.80;99.90;;;;;;4924348;29;20206;-66
2023/12/25 07:33:42;;;;;;;2.07;1.20;;;10.80;99.90;;;;;;4934557;29;20171;-66
2023/12/25 07:36:08;;;;;;;2.80;1.30;;;10.80;99.90;;;;;;4912999;29;20274;-67
2023/12/25 07:38:37;;;;;;;5.40;1.97;;;10.70;99.90;;;;;;4932373;29;20446;-68
2023/12/25 07:41:10;;;;;;;2.77;1.37;;;10.70;99.90;;;;;;4934900;29;20183;-67
2023/12/25 07:43:38;;;;;;;3.93;1.70;;;10.70;99.90;;;;;;4926520;29;20421;-66
2023/12/25 07:46:08;;;;;;;1.90;1.33;;;10.70;99.90;;;;;;4933483;29;20435;-68
2023/12/25 07:48:34;;;;;;;4.80;3.73;;;10.70;99.90;;;;;;4928082;29;21031;-66
2023/12/25 07:51:00;;;;;;;4.20;1.77;;;10.70;99.90;;;;;;4934011;29;20486;-66
2023/12/25 07:53:26;;;;;;;4.10;1.60;;;10.70;99.90;;;;;;4922618;29;20829;-65
2023/12/25 07:55:51;;;;;;;3.77;1.70;;;10.70;99.90;;;;;;4918872;29;20505;-65
2023/12/25 07:58:17;;;;;;;1.73;1.33;;;10.70;99.90;;;;;;4931142;29;20179;-66
2023/12/25 08:00:43;;;;;;;4.43;1.80;;;10.70;99.90;;;;;;4926725;29;20188;-66
2023/12/25 08:03:10;;;;;;;4.10;1.10;;;10.70;99.90;;;;;;4920057;29;20191;-66
2023/12/25 08:05:36;;;;;;;3.53;1.40;;;10.70;99.90;;;;;;4929992;29;20423;-66
2023/12/25 08:08:02;;;;;;;5.50;2.17;;;10.70;99.90;;;;;;4934397;29;20422;-66
2023/12/25 08:10:28;;;;;;;3.27;1.40;;;10.70;99.90;;;;;;4925656;29;20662;-66
2023/12/25 08:12:54;;;;;;;2.57;1.93;;;10.70;99.90;;;;;;4934322;29;20430;-65
2023/12/25 08:15:20;;;;;;;4.13;1.13;;;10.70;99.90;;;;;;4921782;29;20174;-65
2023/12/25 08:17:45;;;;;;;2.07;1.17;;;10.70;99.90;;;;;;4925293;29;20794;-66
2023/12/25 08:20:11;;;;;;;2.30;1.20;;;10.70;99.90;;;;;;4924758;29;20265;-65
2023/12/25 08:22:37;;;;;;;2.90;1.00;;;10.70;99.90;;;;;;4929327;29;20294;-68
2023/12/25 08:25:03;;;;;;;2.80;1.37;;;10.70;99.90;;;;;;4930355;29;20171;-66
2023/12/25 08:27:29;;;;;;;4.03;1.10;;;10.70;99.90;;;;;;4927828;29;20186;-65
2023/12/25 08:29:55;;;;;;;2.60;1.40;;;10.70;99.90;;;;;;4924950;29;20458;-66
2023/12/25 08:32:21;;;;;;;3.20;1.30;;;10.80;99.90;;;;;;4931419;29;20430;-65
2023/12/25 08:34:46;;;;;;;2.33;1.13;;;10.70;99.90;;;;;;4930837;29;20428;-66
2023/12/25 08:37:12;;;;;;;1.97;1.00;;;10.70;99.90;;;;;;4928990;29;20175;-65
2023/12/25 08:39:37;;;;;;;3.23;1.23;;;10.70;99.90;;;;;;4930465;29;20183;-65
2023/12/25 08:42:04;;;;;;;1.97;1.23;;;10.70;99.90;;;;;;4929445;29;20617;-66
2023/12/25 08:44:32;;;;;;;2.30;1.03;;;10.70;99.90;;;;;;4919590;29;20712;-65
2023/12/25 08:46:59;;;;;;;5.33;2.10;;;10.70;99.90;;;;;;4930965;29;20423;-64
2023/12/25 08:49:25;;;;;;;3.60;1.67;;;10.70;99.90;;;;;;4933727;29;20426;-66
2023/12/25 08:51:51;;;;;;;4.93;1.63;;;10.70;99.90;;;;;;4930311;29;20541;-65
2023/12/25 08:54:17;;;;;;;2.00;1.30;;;10.70;99.90;;;;;;4922725;29;20451;-65
2023/12/25 08:56:43;;;;;;;4.27;1.67;;;10.70;99.90;;;;;;4925923;29;20176;-66
2023/12/25 08:59:09;;;;;;;5.33;1.60;;;10.70;99.90;;;;;;4922697;29;20923;-66
2023/12/25 09:01:35;;;;;;;3.60;1.50;;;10.70;99.90;;;;;;4933264;29;20199;-65
2023/12/25 09:04:01;;;;;;;6.63;1.10;;;10.70;99.90;;;;;;4925841;29;20565;-66
2023/12/25 09:06:26;;;;;;;2.87;1.30;;;10.70;99.90;;;;;;4927241;29;20180;-65
2023/12/25 09:08:52;;;;;;;3.33;3.03;;;10.60;99.90;;;;;;4930659;29;20182;-65
2023/12/25 09:11:18;;;;;;;3.33;1.20;;;10.60;99.90;;;;;;4928767;29;20699;-66
2023/12/25 09:13:44;;;;;;;3.00;1.13;;;10.60;99.90;;;;;;4929651;29;20559;-66
2023/12/25 09:16:10;;;;;;;4.03;1.37;;;10.70;99.90;;;;;;4921022;29;20446;-65
2023/12/25 09:18:36;;;;;;;2.83;1.63;;;10.70;99.90;;;;;;4925624;29;20458;-65
2023/12/25 09:21:05;;;;;;;4.00;1.43;;;10.70;99.90;;;;;;4921792;29;20186;-65
2023/12/25 09:23:30;;;;;;;3.70;1.60;;;10.70;99.90;;;;;;4933158;29;20427;-65
2023/12/25 09:25:56;;;;;;;5.70;3.00;;;10.70;99.90;;;;;;4925480;29;20474;-66
2023/12/25 09:28:22;;;;;;;4.90;1.20;;;10.70;99.90;;;;;;4935034;29;20601;-66
2023/12/25 09:30:48;;;;;;;5.27;1.67;;;10.60;99.90;;;;;;4920486;29;20204;-65
2023/12/25 09:33:14;;;;;;;8.23;1.47;;;10.60;99.90;;;;;;4928294;29;20443;-66
2023/12/25 09:35:40;;;;;;;2.60;1.37;;;10.60;99.90;;;;;;4930180;29;20182;-66
2023/12/25 09:38:06;;;;;;;3.37;1.60;;;10.60;99.90;;;;;;4930204;29;20583;-66
2023/12/25 09:40:31;;;;;;;2.63;1.70;;;10.60;99.90;;;;;;4937266;29;20321;-66
2023/12/25 09:43:03;;;;;;;2.57;1.50;;;10.60;99.90;;;;;;4925894;29;20293;-67
2023/12/25 09:45:37;;;;;;;5.53;1.20;;;10.60;99.90;;;;;;4924060;29;20207;-65
2023/12/25 09:48:03;;;;;;;4.67;1.57;;;10.60;99.90;;;;;;4925480;29;20987;-66
2023/12/25 09:50:31;;;;;;;5.33;1.60;;;10.60;99.90;;;;;;4930535;29;20462;-64
2023/12/25 09:52:56;;;;;;;5.07;1.33;;;10.60;99.90;;;;;;4934082;29;20505;-66
2023/12/25 09:55:22;;;;;;;2.50;1.40;;;10.70;99.90;;;;;;4925541;29;20420;-66
2023/12/25 09:57:50;;;;;;;2.50;1.43;;;10.70;99.90;;;;;;4921535;29;20235;-66
2023/12/25 10:00:20;;;;;;;2.63;1.30;;;10.70;99.90;;;;;;4932837;29;20230;-67
2023/12/25 10:02:49;;;;;;;3.67;1.43;;;10.70;99.90;;;;;;4926976;29;20456;-66
2023/12/25 10:05:15;;;;;;;3.40;1.30;;;10.80;99.90;;;;;;4923844;29;20824;-66
2023/12/25 10:07:41;;;;;;;5.77;1.90;;;10.80;99.90;;;;;;4930569;29;20912;-68
2023/12/25 10:10:09;;;;;;;2.37;1.57;;;10.70;99.90;;;;;;4926064;29;20474;-66
2023/12/25 10:12:35;;;;;;;4.60;2.27;;;10.70;99.90;;;;;;4932888;29;20438;-66
2023/12/25 10:15:01;;;;;;;5.67;1.47;;;10.70;99.90;;;;;;4928725;29;20530;-66
2023/12/25 10:17:26;;;;;;;5.30;1.83;;;10.70;99.90;;;;;;4932257;29;20171;-67
2023/12/25 10:19:57;;;;;;;2.50;1.27;;;10.70;99.90;;;;;;4928470;29;20350;-65
2023/12/25 10:22:33;;;;;;;2.80;1.40;;;10.80;99.90;;;;;;4928665;29;20210;-65
2023/12/25 10:25:09;;;;;;;5.13;1.30;;;10.80;99.90;;;;;;4924461;29;20429;-65
2023/12/25 10:27:38;;;;;;;4.83;2.03;;;10.80;99.90;;;;;;4927364;29;20423;-63
2023/12/25 10:30:04;;;;;;;2.13;1.30;;;10.90;99.90;;;;;;4921386;29;20507;-66
2023/12/25 10:32:31;;;;;;;1.80;1.07;;;10.80;99.90;;;;;;4913547;29;20808;-65
2023/12/25 10:35:14;;;;;;;4.63;1.40;;;10.80;99.90;;;;;;4927169;29;20415;-66
2023/12/25 10:37:41;;;;;;;4.33;1.60;;;10.80;99.90;;;;;;4927125;29;20774;-66
2023/12/25 10:40:21;;;;;;;4.17;1.70;;;10.70;99.90;;;;;;4931478;29;20501;-66
2023/12/25 10:42:48;;;;;;;4.50;1.23;;;10.70;99.90;;;;;;4927923;29;20760;-67
2023/12/25 10:45:26;;;;;;;4.10;1.70;;;10.70;99.90;;;;;;4932810;29;20973;-65
2023/12/25 10:48:00;;;;;;;3.80;1.30;;;10.70;99.90;;;;;;4924704;29;20985;-67
2023/12/25 10:50:27;;;;;;;1.47;1.00;;;10.70;99.90;;;;;;4933654;29;20462;-66
2023/12/25 10:52:57;;;;;;;1.20;1.10;;;10.70;99.90;;;;;;4929346;29;20462;-67
2023/12/25 10:55:42;;;;;;;4.27;1.50;;;10.80;99.90;;;;;;4927072;29;20446;-66
2023/12/25 10:58:11;;;;;;;2.83;1.00;;;10.80;99.90;;;;;;4925321;29;20411;-66
2023/12/25 11:00:49;;;;;;;2.27;1.50;;;10.70;99.90;;;;;;4935275;29;20889;-65
2023/12/25 11:03:15;;;;;;;3.80;1.60;;;10.80;99.90;;;;;;4920683;29;20462;-69
2023/12/25 11:05:41;;;;;;;4.13;1.60;;;10.90;99.90;;;;;;4917228;29;20577;-71
2023/12/25 11:08:08;;;;;;;2.43;1.83;;;11.00;99.90;;;;;;4931720;29;20430;-67
2023/12/25 11:10:35;;;;;;;2.40;1.20;;;11.00;99.90;;;;;;4918579;29;20632;-66
2023/12/25 11:13:01;;;;;;;3.43;1.30;;;11.00;99.90;;;;;;4934239;29;20469;-65
2023/12/25 11:15:26;;;;;;;4.90;1.77;;;11.10;99.90;;;;;;4933093;29;20418;-66
2023/12/25 11:17:52;;;;;;;2.07;1.40;;;11.00;99.90;;;;;;4917880;29;20241;-66
2023/12/25 11:20:18;;;;;;;4.60;1.97;;;11.10;99.90;;;;;;4919528;29;20528;-66
2023/12/25 11:22:47;;;;;;;2.33;1.10;;;11.10;99.90;;;;;;4922679;29;20305;-65
2023/12/25 11:25:20;;;;;;;2.60;1.50;;;11.30;99.90;;;;;;4928726;29;20182;-65
2023/12/25 11:27:53;;;;;;;5.20;1.70;;;11.20;99.90;;;;;;4932525;29;20422;-67
2023/12/25 11:30:21;;;;;;;5.80;1.90;;;11.20;99.90;;;;;;4923713;29;20471;-66
2023/12/25 11:32:49;;;;;;;4.13;1.10;;;11.20;99.90;;;;;;4924431;29;20907;-68
2023/12/25 11:35:17;;;;;;;24.23;15.33;;;11.10;99.90;;;;;;4929867;29;20415;-67
2023/12/25 11:37:42;;;;;;;2.90;1.27;;;11.30;99.90;;;;;;4923344;29;20430;-66
2023/12/25 11:40:08;;;;;;;5.00;1.70;;;11.20;99.90;;;;;;4935325;29;20415;-66
2023/12/25 11:42:35;;;;;;;4.83;2.00;;;11.00;99.90;;;;;;4921001;29;20206;-66
2023/12/25 11:45:09;;;;;;;4.60;1.80;;;10.90;99.90;;;;;;4934701;29;20493;-65
2023/12/25 11:47:48;;;;;;;5.50;1.70;;;11.00;99.90;;;;;;4934878;29;20937;-66
2023/12/25 11:50:14;;;;;;;5.73;1.70;;;10.90;99.90;;;;;;4918658;29;20465;-64
2023/12/25 11:52:50;;;;;;;8.47;1.90;;;10.90;99.90;;;;;;4934020;29;20522;-64
2023/12/25 11:55:19;;;;;;;2.10;1.50;;;10.80;99.90;;;;;;4930357;23;20494;-62
2023/12/25 11:57:45;;;;;;;3.00;1.70;;;10.80;99.90;;;;;;4918237;29;20444;-62
2023/12/25 12:00:22;;;;;;;3.77;2.47;;;10.80;99.90;;;;;;4926924;29;20438;-62
2023/12/25 12:02:47;;;;;;;2.50;1.67;;;10.70;99.90;;;;;;4928922;29;20182;-62
2023/12/25 12:05:14;;;;;;;2.67;1.23;;;10.70;99.90;;;;;;4920776;29;21037;-62
2023/12/25 12:07:40;;;;;;;2.00;1.43;;;10.60;99.90;;;;;;4923304;29;20179;-62
2023/12/25 12:10:07;;;;;;;4.63;1.47;;;10.60;99.90;;;;;;4918063;29;20814;-64
2023/12/25 12:12:33;;;;;;;4.50;1.57;;;10.60;99.90;;;;;;4919905;29;20258;-63
2023/12/25 12:15:00;;;;;;;3.83;1.67;;;10.70;99.90;;;;;;4913201;29;20463;-65
2023/12/25 12:17:25;;;;;;;2.87;1.60;;;10.70;99.90;;;;;;4930216;29;20415;-67
2023/12/25 12:19:51;;;;;;;6.00;2.00;;;10.70;99.90;;;;;;4926640;29;20423;-65
2023/12/25 12:22:18;;;;;;;716.73;328.00;;;10.60;99.90;;;;;;4926836;29;20202;-66
2023/12/25 12:24:44;;;;;;;11.00;6.93;;;10.70;99.90;;;;;;4929312;29;20862;-70
2023/12/25 12:27:11;;;;;;;9.73;5.40;;;10.80;99.90;;;;;;4919720;29;20424;-68
2023/12/25 12:29:37;;;;;;;37.50;19.13;;;10.70;99.90;;;;;;4920799;29;20922;-68
2023/12/25 12:32:04;;;;;;;7.80;2.60;;;10.80;99.90;;;;;;4934149;29;20422;-65
2023/12/25 12:34:30;;;;;;;4.50;2.10;;;10.70;99.90;;;;;;4916818;29;20470;-65
2023/12/25 12:37:04;;;;;;;4.90;2.13;;;10.70;99.90;;;;;;4933143;29;20454;-63
2023/12/25 12:39:31;;;;;;;7.03;3.60;;;10.70;99.90;;;;;;4915272;29;20172;-64
2023/12/25 12:41:58;;;;;;;3.20;1.70;;;10.70;99.90;;;;;;4931511;29;20536;-65
2023/12/25 12:44:24;;;;;;;5.07;2.13;;;10.60;99.90;;;;;;4926912;29;20981;-63